Mazi Alex Otti Heliport

NG-0010 · Abia, Nigeria

METAR historie NG-0010 · Mazi Alex Otti Heliport

Hieronder zie je METAR's van de afgelopen dagen. Kies een jaar om door oudere METAR's te bladeren, vanaf het jaar 2007.

16 april 2024

Tijd Code Weer Temp. Zicht Plafond Wind METAR/SPECI
00:00
M
26 °C 6 km 1.000 ft 180° 180° 10 kt METAR DNIM 152300Z 18010KT 6000 -TSRA BKN010 FEW019CB 26/25 Q1012

15 april 2024

Tijd Code Weer Temp. Zicht Plafond Wind METAR/SPECI
18:00
M
34 °C 10 km+ 1.300 ft 360° 360° 0 kt METAR DNIM 151700Z 00000KT 9999 BKN013 34/25 Q1008
17:00
M
34 °C 10 km+ 1.300 ft 360° 360° 0 kt METAR DNIM 151600Z 00000KT 9999 BKN013 34/26 Q1008
16:00
I
35 °C 10 km+ 800 ft 360° 360° 0 kt METAR DNIM 151500Z 00000KT 9999 BKN008 35/26 Q1008
14:00
M
34 °C 10 km+ 1.300 ft 360° 360° 0 kt METAR DNIM 151300Z 00000KT 9999 BKN013 34/26 Q1010
13:00
M
33 °C 10 km+ 1.300 ft 360° 360° 0 kt METAR DNIM 151200Z 00000KT 9999 BKN013 33/26 Q1011
12:00
M
32 °C 10 km+ 1.200 ft 360° 360° 0 kt METAR DNIM 151100Z 00000KT 9999 BKN012 32/26 Q1012
11:00
M
31 °C 10 km+ 1.200 ft 360° 360° 0 kt METAR DNIM 151000Z 00000KT 9999 BKN012 31/26 Q1013
10:00
M
30 °C 10 km+ 1.200 ft 360° 360° 0 kt METAR DNIM 150900Z 00000KT 9999 BKN012 30/26 Q1013
09:00
V
29 °C 10 km+ - 360° 360° 0 kt METAR DNIM 150800Z 00000KT 9999 SCT011 29/26 Q1013
07:00
M
25 °C 6 km 1.000 ft 360° 360° 0 kt METAR DNIM 150600Z 00000KT 6000 BR BKN010 25/24 Q1012
06:00
M
25 °C 6 km 1.000 ft 360° 360° 0 kt METAR DNIM 150500Z 00000KT 6000 BKN010 FEW020CB 25/24 Q1011

14 april 2024

Tijd Code Weer Temp. Zicht Plafond Wind METAR/SPECI
23:00
M
26 °C 5 km 1.000 ft 360° 360° 0 kt METAR DNIM 142200Z 00000KT 5000 BKN010 FEW022CB[N-S] 26/25 Q1012
21:00
M
26 °C 5 km 1.000 ft 360° 360° 0 kt METAR DNIM 142000Z 00000KT 5000 TSRA BKN010 FEW022CB[N-NE] 26/25 Q1012
20:00
M
26 °C 5 km 1.000 ft 360° 360° 0 kt METAR DNIM 141900Z CALM 5000 DZ BKN010 FEW022CB [N-S] 26/25 Q1012
15:00
M
35 °C 10 km+ 1.400 ft 360° 360° 0 kt METAR DNIM 141400Z 00000KT 9999 BKN014 FEW020CB 35/26 Q1008
10:00
M
31 °C 10 km+ 1.200 ft 360° 360° 0 kt METAR DNIM 140900Z 00000KT 9999 BKN012 31/26 Q1013
09:00
M
29 °C 10 km+ 1.000 ft 360° 360° 0 kt METAR DNIM 140800Z 00000KT 9999 BKN010 29/26 Q1013
08:00
M
27 °C 7 km 1.000 ft 360° 360° 0 kt METAR DNIM 140700Z 00000KT 7000 BKN010 27/25 Q1012
07:00
M
25 °C 7 km 1.000 ft 360° 360° 0 kt METAR DNIM 140600Z 00000KT 7000 BKN010 25/24 Q1011

13 april 2024

Tijd Code Weer Temp. Zicht Plafond Wind METAR/SPECI
22:00
M
28 °C 10 km+ 1.100 ft 180° 180° 9 kt METAR DNIM 132100Z 18009KT 9999 BKN011 28/25 Q1011
19:00
V
30 °C 10 km+ - 180° 180° 10 kt METAR DNIM 131800Z 18010KT 9999 SCT012 FEW021CB 30/26 Q1009
18:00
V
30 °C 10 km+ - 180° 180° 11 kt METAR DNIM 131700Z 18011KT 9999 SCT012 FEW023CB CB(SE-SW) 30/26 Q1009
12:00
M
32 °C 10 km+ 1.300 ft 180° 180° 7 kt METAR DNIM 131100Z 18007KT 9999 BKN013 FEW022CB(S-N) 32/25 Q1011
10:00
V
29 °C 10 km+ - 180° 180° 9 kt METAR DNIM 130900Z 18009KT 9999 SCT011 29/25 Q1012
07:00
M
25 °C 8 km 1.000 ft 360° 360° 0 kt METAR DNIM 130600Z 00000KT 8000 BKN010 25/23 Q1010
Wijziging doorgeven